createdAt,value
2022-10-18T00:02:20.256Z,18.50
2022-10-18T00:04:47.462Z,18.50
2022-10-18T00:07:14.348Z,18.50
2022-10-18T00:09:41.070Z,18.50
2022-10-18T00:12:08.095Z,18.50
2022-10-18T00:14:34.807Z,18.50
2022-10-18T00:17:01.777Z,18.50
2022-10-18T00:19:29.370Z,18.50
2022-10-18T00:21:56.509Z,18.60
2022-10-18T00:24:23.163Z,18.60
2022-10-18T00:26:49.812Z,18.50
2022-10-18T00:29:16.582Z,18.50
2022-10-18T00:31:43.988Z,18.50
2022-10-18T00:34:13.812Z,18.50
2022-10-18T00:36:41.056Z,18.50
2022-10-18T00:39:09.443Z,18.50
2022-10-18T00:41:38.076Z,18.50
2022-10-18T00:44:12.566Z,18.50
2022-10-18T00:46:41.895Z,18.60
2022-10-18T00:49:32.074Z,18.60
2022-10-18T00:52:09.719Z,18.50
2022-10-18T00:54:42.962Z,18.50
2022-10-18T00:57:09.987Z,18.50
2022-10-18T00:59:37.516Z,18.40
2022-10-18T01:02:04.523Z,18.40
2022-10-18T01:04:31.208Z,18.40
2022-10-18T01:07:20.455Z,18.30
2022-10-18T01:10:13.437Z,18.40
2022-10-18T01:13:07.106Z,18.40
2022-10-18T01:15:42.578Z,18.30
2022-10-18T01:18:35.841Z,18.30
2022-10-18T01:21:02.418Z,18.30
2022-10-18T01:23:56.324Z,18.30
2022-10-18T01:26:36.931Z,18.30
2022-10-18T01:29:31.351Z,18.30
2022-10-18T01:32:03.251Z,18.30
2022-10-18T01:34:35.108Z,18.30
2022-10-18T01:37:05.098Z,18.30
2022-10-18T01:39:40.609Z,18.30
2022-10-18T01:42:12.111Z,18.30
2022-10-18T01:44:41.112Z,18.30
2022-10-18T01:47:10.807Z,18.30
2022-10-18T01:49:37.448Z,18.40
2022-10-18T01:52:04.222Z,18.40
2022-10-18T01:54:37.268Z,18.40
2022-10-18T01:57:16.981Z,18.40
2022-10-18T02:00:09.270Z,18.50
2022-10-18T02:02:38.674Z,18.50
2022-10-18T02:05:20.401Z,18.50
2022-10-18T02:08:24.166Z,18.40
2022-10-18T02:10:56.975Z,18.50
2022-10-18T02:13:29.008Z,18.50
2022-10-18T02:16:01.415Z,18.50
2022-10-18T02:18:35.176Z,18.40
2022-10-18T02:21:05.331Z,18.40
2022-10-18T02:23:33.785Z,18.40
2022-10-18T02:26:00.970Z,18.40
2022-10-18T02:28:27.726Z,18.30
2022-10-18T02:31:19.248Z,18.30
2022-10-18T02:34:10.773Z,18.20
2022-10-18T02:36:43.231Z,18.20
2022-10-18T02:39:16.020Z,18.30
2022-10-18T02:41:43.319Z,18.20
2022-10-18T02:44:11.041Z,18.20
2022-10-18T02:46:37.993Z,18.10
2022-10-18T02:49:04.643Z,18.20
2022-10-18T02:51:31.382Z,18.10
2022-10-18T02:53:58.017Z,18.20
2022-10-18T02:56:24.720Z,18.20
2022-10-18T02:58:51.341Z,18.20
2022-10-18T03:01:18.000Z,18.10
2022-10-18T03:03:44.668Z,18.10
2022-10-18T03:06:11.315Z,18.20
2022-10-18T03:08:38.492Z,18.20
2022-10-18T03:11:05.311Z,18.20
2022-10-18T03:13:33.991Z,18.20
2022-10-18T03:16:01.202Z,18.20
2022-10-18T03:18:27.954Z,18.20
2022-10-18T03:20:54.744Z,18.20
2022-10-18T03:23:21.599Z,18.20
2022-10-18T03:25:48.286Z,18.20
2022-10-18T03:28:14.931Z,18.20
2022-10-18T03:30:41.545Z,18.10
2022-10-18T03:33:08.191Z,18.30
2022-10-18T03:35:34.819Z,18.30
2022-10-18T03:38:01.440Z,18.40
2022-10-18T03:40:28.098Z,18.40
2022-10-18T03:42:54.764Z,18.40
2022-10-18T03:45:21.367Z,18.50
2022-10-18T03:47:47.965Z,18.40
2022-10-18T03:50:14.710Z,18.50
2022-10-18T03:52:41.412Z,18.50
2022-10-18T03:55:08.351Z,18.50
2022-10-18T03:57:35.134Z,18.50
2022-10-18T04:00:01.988Z,18.50
2022-10-18T04:02:28.704Z,18.50
2022-10-18T04:04:55.519Z,18.50
2022-10-18T04:07:22.159Z,18.40
2022-10-18T04:09:48.793Z,18.40
2022-10-18T04:12:15.474Z,18.30
2022-10-18T04:14:42.106Z,18.30
2022-10-18T04:17:08.764Z,18.30
2022-10-18T04:19:35.510Z,18.30
2022-10-18T04:22:02.187Z,18.20
2022-10-18T04:24:28.784Z,18.10
2022-10-18T04:26:55.497Z,18.10
2022-10-18T04:29:22.268Z,18.10
2022-10-18T04:31:48.930Z,18.20
2022-10-18T04:34:15.528Z,18.20
2022-10-18T04:36:42.146Z,18.20
2022-10-18T04:39:08.786Z,18.30
2022-10-18T04:41:36.146Z,18.30
2022-10-18T04:44:02.776Z,18.30
2022-10-18T04:46:29.536Z,18.30
2022-10-18T04:48:56.282Z,18.40
2022-10-18T04:51:23.059Z,18.40
2022-10-18T04:53:49.720Z,18.40
2022-10-18T04:56:16.574Z,18.40
2022-10-18T04:58:43.230Z,18.40
2022-10-18T05:01:09.882Z,18.40
2022-10-18T05:03:36.662Z,18.40
2022-10-18T05:06:03.716Z,18.40
2022-10-18T05:08:32.149Z,18.40
2022-10-18T05:10:59.434Z,18.40
2022-10-18T05:13:26.669Z,18.40
2022-10-18T05:15:53.327Z,18.40
2022-10-18T05:18:20.079Z,18.40
2022-10-18T05:20:47.101Z,18.40
2022-10-18T05:23:13.739Z,18.40
2022-10-18T05:25:41.766Z,18.40
2022-10-18T05:28:15.581Z,18.40
2022-10-18T05:30:47.842Z,18.40
2022-10-18T05:33:14.512Z,18.40
2022-10-18T05:35:41.207Z,18.40
2022-10-18T05:38:07.916Z,18.40
2022-10-18T05:40:34.652Z,18.40
2022-10-18T05:43:01.290Z,18.30
2022-10-18T05:45:27.931Z,18.30
2022-10-18T05:47:54.974Z,18.20
2022-10-18T05:50:21.626Z,18.30
2022-10-18T05:52:48.279Z,18.20
2022-10-18T05:55:15.117Z,18.10
2022-10-18T05:57:41.780Z,18.10
2022-10-18T06:00:09.370Z,18.10
2022-10-18T06:02:36.095Z,18.10
2022-10-18T06:05:02.802Z,18.20
2022-10-18T06:07:29.680Z,18.10
2022-10-18T06:09:56.490Z,18.00
2022-10-18T06:12:23.123Z,18.10
2022-10-18T06:14:49.754Z,18.10
2022-10-18T06:17:16.388Z,18.20
2022-10-18T06:19:45.758Z,18.20
2022-10-18T06:22:12.954Z,18.10
2022-10-18T06:24:39.667Z,18.30
2022-10-18T06:27:09.200Z,18.30
2022-10-18T06:29:37.474Z,18.30
2022-10-18T06:32:04.774Z,18.30
2022-10-18T06:34:31.449Z,18.30
2022-10-18T06:36:58.803Z,18.30
2022-10-18T06:39:26.122Z,18.30
2022-10-18T06:41:52.924Z,18.40
2022-10-18T06:44:20.881Z,18.30
2022-10-18T06:46:48.770Z,18.30
2022-10-18T06:49:18.976Z,18.30
2022-10-18T06:51:46.185Z,18.30
2022-10-18T06:54:18.006Z,18.20
2022-10-18T06:56:45.314Z,18.20
2022-10-18T06:59:12.016Z,18.30
2022-10-18T07:01:38.849Z,18.30
2022-10-18T07:04:05.614Z,18.30
2022-10-18T07:06:32.290Z,18.30
2022-10-18T07:08:59.287Z,18.40
2022-10-18T07:11:26.843Z,18.50
2022-10-18T07:13:54.773Z,18.60
2022-10-18T07:16:21.728Z,18.70
2022-10-18T07:18:50.797Z,18.80
2022-10-18T07:21:20.909Z,18.80
2022-10-18T07:23:48.476Z,18.80
2022-10-18T07:26:30.571Z,18.90
2022-10-18T07:29:01.457Z,18.90
2022-10-18T07:31:29.366Z,19.00
2022-10-18T07:33:56.219Z,19.00
2022-10-18T07:36:24.417Z,19.10
2022-10-18T07:38:52.050Z,19.10
2022-10-18T07:41:19.167Z,19.20
2022-10-18T07:43:48.158Z,19.20
2022-10-18T07:46:15.703Z,19.30
2022-10-18T07:48:42.679Z,19.30
2022-10-18T07:51:10.080Z,19.40
2022-10-18T07:53:37.523Z,19.50
2022-10-18T07:56:09.380Z,19.50
2022-10-18T07:58:36.727Z,19.60
2022-10-18T08:01:05.732Z,19.70
2022-10-18T08:03:32.765Z,19.70
2022-10-18T08:05:59.411Z,19.80
2022-10-18T08:08:26.733Z,19.90
2022-10-18T08:10:53.598Z,19.90
2022-10-18T08:13:20.931Z,20.10
2022-10-18T08:15:47.858Z,20.20
2022-10-18T08:18:14.593Z,20.40
2022-10-18T08:20:45.654Z,20.70
2022-10-18T08:23:12.713Z,20.90
2022-10-18T08:25:39.441Z,21.20
2022-10-18T08:28:06.760Z,21.30
2022-10-18T08:30:34.973Z,21.40
2022-10-18T08:33:01.955Z,21.40
2022-10-18T08:35:28.648Z,21.50
2022-10-18T08:37:55.316Z,21.60
2022-10-18T08:40:21.961Z,21.80
2022-10-18T08:42:48.552Z,22.10
2022-10-18T08:45:30.072Z,22.60
2022-10-18T08:48:05.368Z,22.90
2022-10-18T08:50:36.787Z,23.20
2022-10-18T08:53:19.420Z,23.40
2022-10-18T08:56:06.087Z,23.60
2022-10-18T08:58:33.577Z,23.60
2022-10-18T09:01:24.339Z,23.50
2022-10-18T09:04:09.684Z,23.30
2022-10-18T09:06:46.814Z,23.00
2022-10-18T09:09:39.134Z,22.90
2022-10-18T09:12:14.143Z,22.60
2022-10-18T09:15:01.271Z,22.40
2022-10-18T09:17:48.083Z,22.20
2022-10-18T09:20:26.766Z,22.10
2022-10-18T09:23:15.389Z,21.90
2022-10-18T09:25:45.468Z,21.80
2022-10-18T09:28:37.106Z,21.70
2022-10-18T09:31:19.184Z,21.70
2022-10-18T09:33:50.450Z,21.70
2022-10-18T09:36:35.344Z,21.80
2022-10-18T09:39:18.985Z,22.00
2022-10-18T09:41:56.309Z,22.40
2022-10-18T09:44:30.151Z,22.60
2022-10-18T09:47:02.004Z,22.70
2022-10-18T09:49:37.235Z,22.80
2022-10-18T09:52:08.993Z,22.80
2022-10-18T09:54:43.640Z,22.90
2022-10-18T09:57:16.715Z,23.00
2022-10-18T09:59:48.259Z,23.20
2022-10-18T10:02:17.342Z,23.30
2022-10-18T10:04:44.064Z,23.80
2022-10-18T10:07:41.300Z,25.60
2022-10-18T10:10:19.841Z,28.80
2022-10-18T10:12:48.542Z,32.00
2022-10-18T10:15:22.528Z,33.90
2022-10-18T10:18:05.531Z,33.60
2022-10-18T10:20:56.572Z,32.80
2022-10-18T10:23:38.795Z,32.30
2022-10-18T10:26:25.144Z,31.90
2022-10-18T10:28:52.222Z,32.50
2022-10-18T10:31:24.883Z,33.50
2022-10-18T10:34:06.754Z,33.40
2022-10-18T10:36:35.046Z,32.80
2022-10-18T10:39:13.721Z,32.00
2022-10-18T10:41:41.349Z,31.10
2022-10-18T10:44:17.271Z,30.10
2022-10-18T10:46:44.517Z,29.80
2022-10-18T10:49:42.424Z,29.80
2022-10-18T10:52:28.924Z,29.20
2022-10-18T10:55:30.870Z,28.50
2022-10-18T10:57:49.745Z,27.90
2022-10-18T11:00:38.062Z,27.20
2022-10-18T11:03:27.242Z,26.60
2022-10-18T11:05:55.477Z,26.10
2022-10-18T11:08:43.577Z,25.70
2022-10-18T11:11:23.149Z,25.30
2022-10-18T11:14:13.531Z,25.00
2022-10-18T11:17:21.006Z,24.70
2022-10-18T11:20:12.464Z,24.40
2022-10-18T11:22:56.612Z,24.20
2022-10-18T11:25:34.170Z,24.00
2022-10-18T11:28:13.076Z,24.00
2022-10-18T11:31:02.786Z,23.90
2022-10-18T11:34:09.107Z,23.90
2022-10-18T11:36:54.574Z,23.90
2022-10-18T11:39:41.569Z,24.10
2022-10-18T11:42:16.607Z,24.50
2022-10-18T11:45:14.682Z,24.90
2022-10-18T11:47:59.900Z,25.40
2022-10-18T11:50:52.194Z,25.80
2022-10-18T11:53:33.693Z,26.30
2022-10-18T11:56:30.517Z,28.10
2022-10-18T11:59:14.001Z,29.70
2022-10-18T12:02:11.655Z,31.20
2022-10-18T12:04:59.785Z,31.80
2022-10-18T12:07:41.935Z,31.90
2022-10-18T12:10:22.017Z,31.20
2022-10-18T12:13:02.699Z,30.20
2022-10-18T12:15:33.544Z,30.20
2022-10-18T12:18:15.988Z,30.80
2022-10-18T12:20:48.155Z,31.80
2022-10-18T12:23:26.025Z,33.90
2022-10-18T12:26:00.740Z,34.50
2022-10-18T12:28:52.229Z,33.90
2022-10-18T12:31:33.929Z,33.10
2022-10-18T12:34:13.513Z,32.30
2022-10-18T12:40:09.764Z,30.90
2022-10-18T12:42:50.495Z,30.10
2022-10-18T12:45:33.334Z,29.30
2022-10-18T12:48:06.816Z,28.90
2022-10-18T12:50:37.094Z,28.50
2022-10-18T12:53:05.483Z,28.20
2022-10-18T12:55:38.728Z,28.00
2022-10-18T12:58:23.955Z,27.80
2022-10-18T13:00:51.487Z,27.40
2022-10-18T13:03:18.114Z,27.20
2022-10-18T13:05:53.542Z,27.20
2022-10-18T13:08:30.325Z,27.10
2022-10-18T13:11:11.915Z,27.00
2022-10-18T13:14:00.993Z,27.20
2022-10-18T13:16:44.496Z,27.20
2022-10-18T13:19:23.626Z,27.00
2022-10-18T13:22:05.634Z,26.80
2022-10-18T13:24:38.237Z,26.60
2022-10-18T13:27:24.571Z,26.30
2022-10-18T13:30:17.563Z,25.90
2022-10-18T13:33:14.458Z,25.50
2022-10-18T13:35:52.317Z,25.20
2022-10-18T13:38:47.273Z,24.90
2022-10-18T13:41:21.320Z,24.60
2022-10-18T13:44:10.434Z,24.50
2022-10-18T13:46:37.021Z,24.20
2022-10-18T13:49:40.747Z,24.00
2022-10-18T13:52:29.373Z,23.80
2022-10-18T13:55:33.553Z,23.60
2022-10-18T13:58:18.928Z,23.50
2022-10-18T14:01:07.249Z,23.40
2022-10-18T14:04:11.727Z,23.40
2022-10-18T14:06:45.962Z,23.40
2022-10-18T14:09:25.437Z,23.50
2022-10-18T14:12:20.576Z,23.60
2022-10-18T14:15:05.203Z,23.60
2022-10-18T14:17:44.550Z,23.70
2022-10-18T14:20:40.082Z,23.60
2022-10-18T14:23:31.193Z,23.60
2022-10-18T14:26:30.943Z,23.60
2022-10-18T14:29:05.853Z,23.50
2022-10-18T14:31:33.215Z,23.50
2022-10-18T14:34:00.956Z,23.40
2022-10-18T14:36:34.434Z,23.50
2022-10-18T14:39:04.305Z,23.50
2022-10-18T14:41:36.077Z,23.50
2022-10-18T14:44:16.735Z,23.40
2022-10-18T14:46:45.590Z,23.30
2022-10-18T14:49:13.346Z,23.20
2022-10-18T14:51:42.404Z,23.10
2022-10-18T14:54:18.462Z,23.00
2022-10-18T14:56:45.897Z,22.90
2022-10-18T14:59:26.794Z,22.70
2022-10-18T15:02:19.212Z,22.70
2022-10-18T15:04:47.290Z,22.50
2022-10-18T15:07:16.883Z,22.40
2022-10-18T15:09:44.607Z,22.30
2022-10-18T15:12:14.783Z,22.20
2022-10-18T15:14:42.428Z,22.10
2022-10-18T15:17:16.768Z,22.10
2022-10-18T15:20:05.893Z,22.00
2022-10-18T15:22:33.644Z,21.90
2022-10-18T15:25:06.668Z,21.80
2022-10-18T15:27:37.789Z,21.70
2022-10-18T15:30:14.637Z,21.70
2022-10-18T15:32:51.836Z,21.60
2022-10-18T15:35:29.266Z,21.60
2022-10-18T15:37:58.532Z,21.60
2022-10-18T15:40:30.403Z,21.50
2022-10-18T15:42:59.622Z,21.40
2022-10-18T15:45:27.424Z,21.40
2022-10-18T15:48:20.580Z,21.30
2022-10-18T15:50:51.829Z,21.20
2022-10-18T15:53:22.526Z,21.20
2022-10-18T15:55:50.103Z,21.10
2022-10-18T15:58:29.917Z,21.10
2022-10-18T16:00:59.220Z,21.00
2022-10-18T16:03:26.014Z,21.00
2022-10-18T16:05:59.749Z,20.90
2022-10-18T16:08:30.405Z,20.80
2022-10-18T16:10:58.782Z,20.70
2022-10-18T16:13:26.698Z,20.70
2022-10-18T16:15:55.702Z,20.60
2022-10-18T16:18:23.812Z,20.50
2022-10-18T16:20:50.525Z,20.40
2022-10-18T16:23:25.805Z,20.40
2022-10-18T16:25:52.893Z,20.40
2022-10-18T16:28:23.220Z,20.30
2022-10-18T16:31:07.983Z,20.30
2022-10-18T16:33:36.613Z,20.10
2022-10-18T16:36:04.714Z,20.00
2022-10-18T16:38:36.398Z,19.90
2022-10-18T16:41:07.825Z,19.80
2022-10-18T16:43:35.034Z,19.80
2022-10-18T16:46:03.158Z,19.60
2022-10-18T16:48:30.447Z,19.50
2022-10-18T16:50:57.616Z,19.50
2022-10-18T16:53:25.066Z,19.40
2022-10-18T16:56:00.463Z,19.30
2022-10-18T16:58:29.024Z,19.20
2022-10-18T17:00:55.983Z,19.10
2022-10-18T17:03:23.419Z,19.10
2022-10-18T17:05:50.219Z,19.00
2022-10-18T17:08:23.732Z,19.00
2022-10-18T17:10:55.311Z,19.00
2022-10-18T17:13:23.139Z,19.00
2022-10-18T17:15:50.790Z,19.00
2022-10-18T17:18:21.646Z,18.90
2022-10-18T17:20:48.916Z,18.90
2022-10-18T17:23:15.689Z,18.80
2022-10-18T17:25:57.752Z,18.90
2022-10-18T17:28:33.092Z,18.90
2022-10-18T17:30:59.779Z,18.80
2022-10-18T17:33:26.508Z,18.80
2022-10-18T17:35:53.165Z,18.80
2022-10-18T17:38:19.798Z,18.80
2022-10-18T17:40:46.449Z,18.70
2022-10-18T17:43:13.768Z,18.80
2022-10-18T17:45:53.959Z,18.70
2022-10-18T17:48:20.634Z,18.60
2022-10-18T17:50:47.315Z,18.70
2022-10-18T17:53:14.270Z,18.60
2022-10-18T17:55:40.899Z,18.60
2022-10-18T17:58:07.616Z,18.60
2022-10-18T18:00:34.352Z,18.50
2022-10-18T18:03:01.141Z,18.40
2022-10-18T18:05:32.765Z,18.30
2022-10-18T18:08:03.744Z,18.20
2022-10-18T18:10:32.754Z,18.20
2022-10-18T18:12:59.447Z,18.10
2022-10-18T18:15:26.148Z,18.00
2022-10-18T18:17:57.929Z,18.00
2022-10-18T18:20:25.789Z,17.90
2022-10-18T18:22:52.988Z,17.80
2022-10-18T18:25:19.832Z,17.80
2022-10-18T18:27:46.442Z,17.70
2022-10-18T18:30:14.365Z,17.60
2022-10-18T18:32:40.974Z,17.60
2022-10-18T18:35:07.816Z,17.50
2022-10-18T18:37:34.455Z,17.50
2022-10-18T18:40:01.131Z,17.40
2022-10-18T18:42:27.729Z,17.40
2022-10-18T18:44:54.361Z,17.30
2022-10-18T18:47:23.235Z,17.20
2022-10-18T18:49:51.426Z,17.20
2022-10-18T18:52:18.069Z,17.10
2022-10-18T18:54:45.005Z,16.90
2022-10-18T18:57:11.647Z,16.90
2022-10-18T18:59:38.309Z,16.90
2022-10-18T19:02:04.975Z,16.80
2022-10-18T19:04:31.649Z,16.70
2022-10-18T19:06:58.335Z,16.80
2022-10-18T19:09:27.116Z,16.70
2022-10-18T19:11:55.854Z,16.60
2022-10-18T19:14:24.717Z,16.60
2022-10-18T19:17:01.411Z,16.50
2022-10-18T19:19:30.485Z,16.40
2022-10-18T19:21:59.596Z,16.40
2022-10-18T19:24:28.782Z,16.30
2022-10-18T19:27:00.824Z,16.30
2022-10-18T19:29:34.953Z,16.30
2022-10-18T19:32:07.313Z,16.30
2022-10-18T19:34:34.812Z,16.20
2022-10-18T19:37:01.645Z,16.20
2022-10-18T19:39:33.608Z,16.20
2022-10-18T19:42:03.273Z,16.10
2022-10-18T19:44:32.065Z,16.10
2022-10-18T19:46:59.116Z,16.10
2022-10-18T19:49:26.179Z,16.10
2022-10-18T19:51:52.900Z,16.00
2022-10-18T19:54:19.520Z,16.00
2022-10-18T19:56:46.501Z,16.00
2022-10-18T19:59:14.764Z,16.00
2022-10-18T20:01:42.042Z,15.90
2022-10-18T20:04:09.917Z,15.90
2022-10-18T20:06:38.226Z,15.80
2022-10-18T20:09:06.261Z,15.80
2022-10-18T20:11:32.968Z,15.80
2022-10-18T20:13:59.769Z,15.70
2022-10-18T20:16:29.034Z,15.80
2022-10-18T20:19:01.334Z,15.70
2022-10-18T20:21:29.854Z,15.70
2022-10-18T20:23:56.851Z,15.70
2022-10-18T20:26:25.297Z,15.70
2022-10-18T20:28:57.217Z,15.70
2022-10-18T20:31:26.462Z,15.70
2022-10-18T20:33:55.652Z,15.70
2022-10-18T20:36:22.358Z,15.70
2022-10-18T20:38:49.104Z,15.60
2022-10-18T20:41:18.901Z,15.50
2022-10-18T20:43:51.324Z,15.50
2022-10-18T20:46:18.079Z,15.40
2022-10-18T20:48:44.722Z,15.50
2022-10-18T20:51:16.922Z,15.50
2022-10-18T20:53:43.837Z,15.50
2022-10-18T20:56:12.757Z,15.50
2022-10-18T20:58:40.842Z,15.50
2022-10-18T21:01:22.063Z,15.50
2022-10-18T21:03:50.481Z,15.50
2022-10-18T21:06:27.144Z,15.40
2022-10-18T21:08:58.921Z,15.50
2022-10-18T21:11:27.184Z,15.40
2022-10-18T21:14:00.012Z,15.40
2022-10-18T21:16:27.409Z,15.30
2022-10-18T21:18:54.786Z,15.30
2022-10-18T21:21:24.093Z,15.30
2022-10-18T21:23:51.838Z,15.30
2022-10-18T21:26:21.297Z,15.20
2022-10-18T21:28:50.391Z,15.20
2022-10-18T21:31:19.808Z,15.10
2022-10-18T21:33:47.384Z,15.10
2022-10-18T21:36:14.668Z,15.10
2022-10-18T21:38:45.673Z,15.00
2022-10-18T21:41:15.297Z,15.00
2022-10-18T21:43:44.899Z,14.90
2022-10-18T21:46:13.237Z,14.80
2022-10-18T21:48:43.467Z,14.80
2022-10-18T21:51:10.229Z,14.80
2022-10-18T21:53:37.090Z,14.70
2022-10-18T21:56:05.725Z,14.70
2022-10-18T21:58:32.615Z,14.70
2022-10-18T22:00:59.330Z,14.70
2022-10-18T22:03:26.093Z,14.70
2022-10-18T22:06:04.573Z,14.70
2022-10-18T22:08:31.242Z,14.70
2022-10-18T22:10:58.122Z,14.60
2022-10-18T22:13:24.828Z,14.80
2022-10-18T22:15:51.790Z,14.70
2022-10-18T22:18:18.716Z,14.80
2022-10-18T22:20:59.910Z,14.80
2022-10-18T22:23:41.967Z,14.80
2022-10-18T22:26:20.659Z,14.90
2022-10-18T22:28:47.978Z,14.90
2022-10-18T22:31:20.827Z,14.90
2022-10-18T22:33:52.287Z,14.90
2022-10-18T22:36:18.915Z,14.90
2022-10-18T22:38:45.546Z,14.90
2022-10-18T22:41:12.708Z,14.90
2022-10-18T22:43:39.426Z,15.00
2022-10-18T22:46:11.893Z,15.00
2022-10-18T22:48:38.793Z,15.00
2022-10-18T22:51:05.927Z,15.00
2022-10-18T22:53:33.443Z,15.00
2022-10-18T22:56:00.302Z,15.00
2022-10-18T22:58:27.105Z,15.00
2022-10-18T23:01:01.666Z,15.00
2022-10-18T23:03:28.538Z,15.00
2022-10-18T23:05:55.579Z,15.00
2022-10-18T23:08:22.284Z,15.00
2022-10-18T23:10:54.681Z,14.80
2022-10-18T23:13:22.130Z,14.90
2022-10-18T23:15:48.765Z,14.90
2022-10-18T23:18:15.497Z,14.90
2022-10-18T23:20:42.115Z,14.90
2022-10-18T23:23:08.748Z,14.90
2022-10-18T23:25:36.676Z,14.90
2022-10-18T23:28:04.645Z,14.90
2022-10-18T23:30:31.643Z,14.80
2022-10-18T23:32:58.314Z,14.80
2022-10-18T23:35:24.994Z,14.80
2022-10-18T23:37:52.624Z,14.70
2022-10-18T23:40:19.264Z,14.70
2022-10-18T23:42:46.234Z,14.70
2022-10-18T23:45:12.868Z,14.60
2022-10-18T23:47:39.485Z,14.50
2022-10-18T23:50:06.545Z,14.50
2022-10-18T23:52:33.182Z,14.50
2022-10-18T23:54:59.805Z,14.40
2022-10-18T23:57:26.435Z,14.40
2022-10-18T23:59:53.067Z,14.40
